Upton, Utah
Current Conditions -  °F | °C
As of 7:53 PM on Friday 21 Nov 2014 (Local Time) from KEVW Reporting Station
Clear Clear  
Wind Chill: 26°   Ceiling: Unl
Heat Index: 32°   Visibility: 10mi
Dew Point: 19°   Wind: 7mph
Humidity: 59%   Direction: 210°SSW
Pressure: 30"   Gusts: NA
Location:  40.9431°N, 111.212°W
Report Text: KEVW 220253Z AUTO 21006KT 10SM CLR 00/M07 A3000 RMK AO2 SLP171 T00001072 58001
Loading
Personal Weather Stations






























Interactive Weather Map New forecast layout! Learn more

10-Day Weather Forecast

Advertisements
Track Severe Weather on mobile